sensor_id;sensor_type;location;lat;lon;timestamp;P1;durP1;ratioP1;P2;durP2;ratioP2
57301;SDS011;43149;50.974;18.224;2023-04-15T00:05:50;24.20;;;9.70;;
57301;SDS011;43149;50.974;18.224;2023-04-15T00:15:36;39.10;;;11.50;;
57301;SDS011;43149;50.974;18.224;2023-04-15T00:25:20;23.20;;;14.10;;
57301;SDS011;43149;50.974;18.224;2023-04-15T00:35:04;11.10;;;7.80;;
57301;SDS011;43149;50.974;18.224;2023-04-15T00:44:48;16.70;;;9.30;;
57301;SDS011;43149;50.974;18.224;2023-04-15T00:54:33;10.70;;;9.00;;
57301;SDS011;43149;50.974;18.224;2023-04-15T01:04:16;15.00;;;8.20;;
57301;SDS011;43149;50.974;18.224;2023-04-15T01:13:59;6.50;;;5.20;;
57301;SDS011;43149;50.974;18.224;2023-04-15T01:23:45;12.60;;;7.70;;
57301;SDS011;43149;50.974;18.224;2023-04-15T01:33:33;4.60;;;4.20;;
57301;SDS011;43149;50.974;18.224;2023-04-15T01:43:17;9.40;;;5.80;;
57301;SDS011;43149;50.974;18.224;2023-04-15T01:53:02;6.10;;;5.00;;
57301;SDS011;43149;50.974;18.224;2023-04-15T02:02:49;5.30;;;4.90;;
57301;SDS011;43149;50.974;18.224;2023-04-15T02:12:34;8.30;;;7.50;;
57301;SDS011;43149;50.974;18.224;2023-04-15T02:22:20;5.90;;;4.20;;
57301;SDS011;43149;50.974;18.224;2023-04-15T02:32:11;20.10;;;8.50;;
57301;SDS011;43149;50.974;18.224;2023-04-15T02:41:58;16.60;;;5.60;;
57301;SDS011;43149;50.974;18.224;2023-04-15T02:51:45;7.00;;;5.70;;
57301;SDS011;43149;50.974;18.224;2023-04-15T03:01:32;12.10;;;6.50;;
57301;SDS011;43149;50.974;18.224;2023-04-15T03:11:16;14.70;;;3.90;;
57301;SDS011;43149;50.974;18.224;2023-04-15T03:21:00;14.40;;;9.60;;
57301;SDS011;43149;50.974;18.224;2023-04-15T03:30:48;14.80;;;8.50;;
57301;SDS011;43149;50.974;18.224;2023-04-15T03:40:31;11.50;;;6.00;;
57301;SDS011;43149;50.974;18.224;2023-04-15T03:50:15;12.80;;;6.20;;
57301;SDS011;43149;50.974;18.224;2023-04-15T04:00:04;8.90;;;5.30;;
57301;SDS011;43149;50.974;18.224;2023-04-15T04:09:49;3.20;;;2.70;;
57301;SDS011;43149;50.974;18.224;2023-04-15T04:19:33;9.10;;;6.00;;
57301;SDS011;43149;50.974;18.224;2023-04-15T04:29:18;4.50;;;3.80;;
57301;SDS011;43149;50.974;18.224;2023-04-15T04:39:04;11.80;;;6.80;;
57301;SDS011;43149;50.974;18.224;2023-04-15T04:48:49;9.50;;;6.60;;
57301;SDS011;43149;50.974;18.224;2023-04-15T04:58:33;7.60;;;5.60;;
57301;SDS011;43149;50.974;18.224;2023-04-15T05:08:17;7.80;;;2.70;;
57301;SDS011;43149;50.974;18.224;2023-04-15T05:18:04;6.60;;;3.50;;
57301;SDS011;43149;50.974;18.224;2023-04-15T05:27:47;11.20;;;5.10;;
57301;SDS011;43149;50.974;18.224;2023-04-15T05:37:32;5.10;;;3.40;;
57301;SDS011;43149;50.974;18.224;2023-04-15T05:47:16;4.40;;;3.80;;
57301;SDS011;43149;50.974;18.224;2023-04-15T05:57:01;3.90;;;2.70;;
57301;SDS011;43149;50.974;18.224;2023-04-15T06:06:44;1.90;;;1.80;;
57301;SDS011;43149;50.974;18.224;2023-04-15T06:16:27;2.40;;;2.20;;
57301;SDS011;43149;50.974;18.224;2023-04-15T06:26:11;6.40;;;2.40;;
57301;SDS011;43149;50.974;18.224;2023-04-15T06:35:55;3.50;;;2.90;;
57301;SDS011;43149;50.974;18.224;2023-04-15T06:45:38;4.10;;;1.40;;
57301;SDS011;43149;50.974;18.224;2023-04-15T06:55:22;2.40;;;0.70;;
57301;SDS011;43149;50.974;18.224;2023-04-15T07:05:06;1.50;;;1.20;;
57301;SDS011;43149;50.974;18.224;2023-04-15T07:14:52;0.70;;;0.70;;
57301;SDS011;43149;50.974;18.224;2023-04-15T07:24:35;1.40;;;1.20;;
57301;SDS011;43149;50.974;18.224;2023-04-15T07:34:21;1.50;;;1.40;;
57301;SDS011;43149;50.974;18.224;2023-04-15T07:44:07;1.40;;;0.80;;
57301;SDS011;43149;50.974;18.224;2023-04-15T07:53:51;0.10;;;0.10;;
57301;SDS011;43149;50.974;18.224;2023-04-15T08:03:35;0.40;;;0.40;;
57301;SDS011;43149;50.974;18.224;2023-04-15T08:13:19;0.30;;;0.30;;
57301;SDS011;43149;50.974;18.224;2023-04-15T08:23:03;0.70;;;0.50;;
57301;SDS011;43149;50.974;18.224;2023-04-15T08:32:49;0.50;;;0.50;;
57301;SDS011;43149;50.974;18.224;2023-04-15T08:42:40;1.10;;;0.50;;
57301;SDS011;43149;50.974;18.224;2023-04-15T08:52:29;0.30;;;0.30;;
57301;SDS011;43149;50.974;18.224;2023-04-15T09:02:20;0.50;;;0.50;;
57301;SDS011;43149;50.974;18.224;2023-04-15T09:12:07;0.20;;;0.20;;
57301;SDS011;43149;50.974;18.224;2023-04-15T09:21:53;0.80;;;0.70;;
57301;SDS011;43149;50.974;18.224;2023-04-15T09:31:45;2.00;;;1.80;;
57301;SDS011;43149;50.974;18.224;2023-04-15T09:41:40;0.40;;;0.40;;
57301;SDS011;43149;50.974;18.224;2023-04-15T09:51:39;0.40;;;0.40;;
57301;SDS011;43149;50.974;18.224;2023-04-15T10:01:32;0.70;;;0.70;;
57301;SDS011;43149;50.974;18.224;2023-04-15T10:11:19;2.50;;;1.40;;
57301;SDS011;43149;50.974;18.224;2023-04-15T10:21:10;6.00;;;4.10;;
57301;SDS011;43149;50.974;18.224;2023-04-15T10:30:56;7.10;;;6.40;;
57301;SDS011;43149;50.974;18.224;2023-04-15T10:41:13;0.60;;;0.60;;
57301;SDS011;43149;50.974;18.224;2023-04-15T10:46:16;3.00;;;1.70;;
57301;SDS011;43149;50.974;18.224;2023-04-15T11:07:09;4.50;;;2.50;;
57301;SDS011;43149;50.974;18.224;2023-04-15T11:17:08;0.80;;;0.80;;
57301;SDS011;43149;50.974;18.224;2023-04-15T11:27:00;1.10;;;0.80;;
57301;SDS011;43149;50.974;18.224;2023-04-15T11:36:57;13.20;;;4.60;;
57301;SDS011;43149;50.974;18.224;2023-04-15T11:46:42;8.60;;;6.80;;
57301;SDS011;43149;50.974;18.224;2023-04-15T11:56:29;2.10;;;1.50;;
57301;SDS011;43149;50.974;18.224;2023-04-15T12:06:24;4.00;;;3.60;;
57301;SDS011;43149;50.974;18.224;2023-04-15T12:16:11;0.60;;;0.60;;
57301;SDS011;43149;50.974;18.224;2023-04-15T12:26:03;0.10;;;0.10;;
57301;SDS011;43149;50.974;18.224;2023-04-15T12:35:48;5.80;;;5.30;;
57301;SDS011;43149;50.974;18.224;2023-04-15T12:45:32;8.20;;;4.60;;
57301;SDS011;43149;50.974;18.224;2023-04-15T12:55:16;41.90;;;31.60;;
57301;SDS011;43149;50.974;18.224;2023-04-15T13:05:00;1.40;;;0.50;;
57301;SDS011;43149;50.974;18.224;2023-04-15T13:14:44;4.30;;;2.30;;
57301;SDS011;43149;50.974;18.224;2023-04-15T13:24:27;1.70;;;0.40;;
57301;SDS011;43149;50.974;18.224;2023-04-15T13:34:10;6.60;;;3.30;;
57301;SDS011;43149;50.974;18.224;2023-04-15T13:43:55;4.10;;;3.70;;
57301;SDS011;43149;50.974;18.224;2023-04-15T13:53:41;2.80;;;2.60;;
57301;SDS011;43149;50.974;18.224;2023-04-15T14:03:26;3.20;;;2.80;;
57301;SDS011;43149;50.974;18.224;2023-04-15T14:13:14;2.00;;;1.90;;
57301;SDS011;43149;50.974;18.224;2023-04-15T14:22:58;3.30;;;2.60;;
57301;SDS011;43149;50.974;18.224;2023-04-15T14:32:41;2.90;;;1.40;;
57301;SDS011;43149;50.974;18.224;2023-04-15T14:42:25;3.30;;;1.60;;
57301;SDS011;43149;50.974;18.224;2023-04-15T14:52:09;2.00;;;1.90;;
57301;SDS011;43149;50.974;18.224;2023-04-15T15:01:52;2.40;;;2.20;;
57301;SDS011;43149;50.974;18.224;2023-04-15T15:11:37;2.90;;;2.20;;
57301;SDS011;43149;50.974;18.224;2023-04-15T15:21:23;5.50;;;4.10;;
57301;SDS011;43149;50.974;18.224;2023-04-15T15:31:07;2.20;;;2.00;;
57301;SDS011;43149;50.974;18.224;2023-04-15T15:40:52;53.50;;;15.80;;
57301;SDS011;43149;50.974;18.224;2023-04-15T15:50:37;67.60;;;25.00;;
57301;SDS011;43149;50.974;18.224;2023-04-15T16:00:21;53.70;;;20.00;;
57301;SDS011;43149;50.974;18.224;2023-04-15T16:10:05;100.00;;;46.20;;
57301;SDS011;43149;50.974;18.224;2023-04-15T16:19:50;18.00;;;11.30;;
57301;SDS011;43149;50.974;18.224;2023-04-15T16:29:40;6.20;;;4.70;;
57301;SDS011;43149;50.974;18.224;2023-04-15T16:39:26;5.80;;;3.40;;
57301;SDS011;43149;50.974;18.224;2023-04-15T16:49:10;5.50;;;3.70;;
57301;SDS011;43149;50.974;18.224;2023-04-15T16:58:56;15.80;;;9.40;;
57301;SDS011;43149;50.974;18.224;2023-04-15T17:08:43;6.10;;;4.30;;
57301;SDS011;43149;50.974;18.224;2023-04-15T17:18:30;6.00;;;4.30;;
57301;SDS011;43149;50.974;18.224;2023-04-15T17:28:16;3.10;;;2.80;;
57301;SDS011;43149;50.974;18.224;2023-04-15T17:38:01;7.80;;;3.50;;
57301;SDS011;43149;50.974;18.224;2023-04-15T17:47:45;11.80;;;6.60;;
57301;SDS011;43149;50.974;18.224;2023-04-15T17:57:29;15.10;;;5.20;;
57301;SDS011;43149;50.974;18.224;2023-04-15T18:07:13;2.50;;;2.30;;
57301;SDS011;43149;50.974;18.224;2023-04-15T18:17:00;17.50;;;9.50;;
57301;SDS011;43149;50.974;18.224;2023-04-15T18:26:45;12.10;;;5.30;;
57301;SDS011;43149;50.974;18.224;2023-04-15T18:36:30;21.20;;;10.30;;
57301;SDS011;43149;50.974;18.224;2023-04-15T18:46:15;37.70;;;13.80;;
57301;SDS011;43149;50.974;18.224;2023-04-15T18:55:58;35.70;;;17.80;;
57301;SDS011;43149;50.974;18.224;2023-04-15T19:05:44;28.90;;;15.40;;
57301;SDS011;43149;50.974;18.224;2023-04-15T19:15:28;67.00;;;20.60;;
57301;SDS011;43149;50.974;18.224;2023-04-15T19:25:11;18.10;;;10.60;;
57301;SDS011;43149;50.974;18.224;2023-04-15T19:34:55;19.70;;;13.80;;
57301;SDS011;43149;50.974;18.224;2023-04-15T19:44:38;27.10;;;11.60;;
57301;SDS011;43149;50.974;18.224;2023-04-15T20:01:42;22.70;;;13.20;;
57301;SDS011;43149;50.974;18.224;2023-04-15T20:11:26;37.70;;;16.50;;
57301;SDS011;43149;50.974;18.224;2023-04-15T20:21:12;22.50;;;15.50;;
57301;SDS011;43149;50.974;18.224;2023-04-15T20:30:57;40.00;;;17.40;;
57301;SDS011;43149;50.974;18.224;2023-04-15T20:40:42;34.70;;;18.70;;
57301;SDS011;43149;50.974;18.224;2023-04-15T20:50:25;47.10;;;19.70;;
57301;SDS011;43149;50.974;18.224;2023-04-15T21:00:08;35.80;;;17.50;;
57301;SDS011;43149;50.974;18.224;2023-04-15T21:09:52;41.80;;;18.10;;
57301;SDS011;43149;50.974;18.224;2023-04-15T21:19:37;32.50;;;17.60;;
57301;SDS011;43149;50.974;18.224;2023-04-15T21:29:25;16.30;;;11.60;;
57301;SDS011;43149;50.974;18.224;2023-04-15T21:39:08;17.80;;;10.20;;
57301;SDS011;43149;50.974;18.224;2023-04-15T21:48:53;23.80;;;14.60;;
57301;SDS011;43149;50.974;18.224;2023-04-15T21:53:45;32.90;;;18.70;;
57301;SDS011;43149;50.974;18.224;2023-04-15T22:03:32;18.00;;;10.20;;
57301;SDS011;43149;50.974;18.224;2023-04-15T22:13:18;18.80;;;11.20;;
57301;SDS011;43149;50.974;18.224;2023-04-15T22:23:01;27.30;;;15.40;;
57301;SDS011;43149;50.974;18.224;2023-04-15T22:32:49;23.20;;;11.90;;
57301;SDS011;43149;50.974;18.224;2023-04-15T22:42:34;19.90;;;11.70;;
57301;SDS011;43149;50.974;18.224;2023-04-15T22:52:17;20.20;;;13.50;;
57301;SDS011;43149;50.974;18.224;2023-04-15T23:02:02;39.80;;;21.00;;
57301;SDS011;43149;50.974;18.224;2023-04-15T23:11:46;32.80;;;18.10;;
57301;SDS011;43149;50.974;18.224;2023-04-15T23:21:29;70.40;;;27.60;;
57301;SDS011;43149;50.974;18.224;2023-04-15T23:31:13;20.30;;;13.10;;
57301;SDS011;43149;50.974;18.224;2023-04-15T23:40:57;23.00;;;14.90;;
57301;SDS011;43149;50.974;18.224;2023-04-15T23:50:40;22.40;;;14.60;;
